16 agosto 2022

Tempo Codice Tempo metereologico Temp. Vista Base nuvolosa Vento METAR/SPECI
2:00 am
V
52 °F 20 mi - 220° 220° 7 kt METAR CYEG 160800Z 22007KT 20SM FEW100 11/11 A3001 RMK AC1 AC TR SLP164 DENSITY ALT 2400FT
1:00 am
V
54 °F 20 mi - Var 000° 0 kt METAR CYEG 160700Z 00000KT 20SM FEW100 12/11 A3000 RMK AC1 SLP161 DENSITY ALT 2600FT
12:00 am
V
57 °F 20 mi - 140° 140° 4 kt METAR CYEG 160600Z 14004KT 130V250 20SM FEW100 FEW250 14/13 A3000 RMK AC1CI1 CI TR SLP161 DENSITY ALT 2800FT

15 agosto 2022

Tempo Codice Tempo metereologico Temp. Vista Base nuvolosa Vento METAR/SPECI
11:00 pm
V
57 °F 20 mi - 190° 190° 5 kt METAR CYEG 160500Z 19005KT 20SM FEW100 FEW250 14/12 A3000 RMK AC1CI1 CI TR SLP164 DENSITY ALT 2700FT
10:00 pm
V
59 °F 20 mi - 180° 180° 5 kt METAR CYEG 160400Z 18005KT 20SM FEW060CB FEW100 FEW250 15/13 A3001 RMK CB1AC1CI1 CB TR CI TR CB SH DIST SW MOV SE SLP167 DENSITY ALT 2900FT
9:00 pm
V
68 °F 20 mi - 180° 180° 5 kt METAR CYEG 160300Z 18005KT 20SM FEW060CB FEW100 FEW250 20/14 A3000 RMK CB1AC1CI1 CB TR CI TR CB SH DIST W MOV E OCNL LTNG SLP162 DENSITY ALT 3400FT
8:00 pm
V
73 °F 20 mi - 200° 200° 4 kt METAR CYEG 160200Z 20004KT 20SM FEW060 FEW100 FEW250 23/16 A3000 RMK CU1AC1CI1 CU TR CI TR SLP161 DENSITY ALT 3800FT
7:00 pm
V
73 °F 20 mi - 220° 220° 5 kt METAR CYEG 160100Z 22005KT 20SM FEW060 FEW100 FEW180 SCT230 23/15 A3000 RMK CU1AC1AC1CI2 CU TR UPR AC TR SLP163 DENSITY ALT 3800FT
6:00 pm
V
81 °F 20 mi 23.000 ft 260° 260° 3 kt METAR CYEG 160000Z 26003KT 190V360 20SM FEW060 SCT180 BKN230 27/12 A2999 RMK CU2AC1CI3 TCU ASOCTD SLP158 DENSITY ALT 4200FT
5:00 pm
V
81 °F 20 mi 25.000 ft Var Var 2 kt METAR CYEG 152300Z VRB02KT 20SM FEW064 FEW100 FEW160 BKN250 27/12 A3000 RMK CU2AC1AC1CI4 AC TR AC TR TCU ASOCTD SLP162 DENSITY ALT 4300FT
4:00 pm
V
77 °F 20 mi 25.000 ft 230° 230° 3 kt METAR CYEG 152200Z 23003KT 20SM SCT048 SCT100 BKN250 25/13 A3001 RMK CU3AC1CI3 AC TR CONTRAILS TCU ASOCTD SLP168 DENSITY ALT 4000FT
3:00 pm
V
77 °F 20 mi 25.000 ft 340° 340° 3 kt METAR CYEG 152100Z 34003KT 230V020 20SM FEW048 FEW100 FEW160 BKN250 25/13 A3002 RMK CU2AC1AC1CI4 AC TR AC TR CONTRAILS CC ASOCTD SLP170 DENSITY ALT 4000FT
2:00 pm
V
77 °F 20 mi 25.000 ft Var Var 2 kt METAR CYEG 152000Z CCA VRB02KT 20SM FEW048 FEW100 FEW160 BKN250 25/13 A3003 RMK CU1AC1AC1CI6 CU TR AC TR AC TR ACC ASOCTD LWR AC LYR SLP171 DENSITY ALT 4000FT
1:00 pm
V
75 °F 20 mi 25.000 ft 170° 170° 3 kt METAR CYEG 151900Z 17003KT 120V220 20SM FEW040 FEW100 BKN250 24/15 A3004 RMK CU1AC2CI5 CU TR ACC ASOCTD SLP176 DENSITY ALT 3900FT
12:00 pm
V
73 °F 20 mi 25.000 ft Var Var 2 kt METAR CYEG 151800Z VRB02KT 20SM FEW036 SCT100 BKN250 23/13 A3005 RMK CU1AC4CI2 CU TR ACC ASOCTD E SLP180 DENSITY ALT 3700FT
11:00 am
V
70 °F 20 mi - Var Var 2 kt METAR CYEG 151700Z VRB02KT 20SM FEW090 FEW160 FEW250 21/13 A3005 RMK AC1AC1CI2 AC TR AC TR ACC ASOCTD LWR LYR SLP181 DENSITY ALT 3500FT
10:00 am
V
66 °F 20 mi - 260° 260° 5 kt METAR CYEG 151600Z 26005KT 240V340 20SM FEW090 FEW120 FEW250 19/14 A3005 RMK AC1AC1CI1 AC TR AC TR ACC ASOCTD LWR LYR SLP182 DENSITY ALT 3300FT
9:00 am
V
61 °F 20 mi - 260° 260° 4 kt METAR CYEG 151500Z 26004KT 190V270 20SM SCT088 SCT110 SCT250 16/13 A3005 RMK AC3AC1CI1 AC TR CI TR ACC ASOCTD E SLP183 DENSITY ALT 2900FT
8:00 am
V
55 °F 20 mi 11.000 ft 210° 210° 3 kt METAR CYEG 151400Z 21003KT 20SM SCT086 BKN110 BKN250 13/13 A3005 RMK AC4AC1CI1 CI TR ACC ASOCTD SH DIST E SLP182 DENSITY ALT 2600FT
7:00 am
V
52 °F 20 mi 9.000 ft 220° 220° 3 kt METAR CYEG 151300Z 22003KT 20SM VCSH BKN090 BKN110 BKN250 11/11 A3005 RMK ACC7AC1CI1 AC TR CI TR CONTRAILS SH S SLP183 DENSITY ALT 2400FT
6:00 am
V
52 °F 20 mi 11.000 ft 140° 140° 4 kt METAR CYEG 151200Z 14004KT 20SM SCT082 BKN110 BKN190 BKN250 11/10 A3004 RMK AC4AC3AC1CI1 AC TR CI TR SLP177 DENSITY ALT 2400FT
5:00 am
V
48 °F 20 mi 11.000 ft 250° 250° 3 kt METAR CYEG 151100Z 25003KT 20SM BKN110 BKN250 09/09 A3004 RMK AC7CI1 CI TR SLP178
4:00 am
V
48 °F 20 mi - 210° 210° 2 kt METAR CYEG 151000Z 21002KT 20SM SCT110 09/08 A3004 RMK AC3 SLP178
3:00 am
V
50 °F 20 mi - 170° 170° 3 kt METAR CYEG 150900Z 17003KT 20SM FEW190 10/10 A3003 RMK AC1 AC TR SLP175
2:00 am
V
52 °F 20 mi - 120° 120° 2 kt METAR CYEG 150800Z 12002KT 20SM SCT190 11/09 A3003 RMK AC3 SLP175 DENSITY ALT 2400FT
1:00 am
V
52 °F 20 mi - 190° 190° 5 kt METAR CYEG 150700Z 19005KT 20SM SCT190 11/10 A3004 RMK AC3 SLP177 DENSITY ALT 2400FT
12:00 am
V
52 °F 20 mi 19.000 ft 210° 210° 4 kt METAR CYEG 150600Z 21004KT 20SM BKN190 BKN250 11/10 A3003 RMK AC6CI1 CI TR SLP174 DENSITY ALT 2400FT

14 agosto 2022

Tempo Codice Tempo metereologico Temp. Vista Base nuvolosa Vento METAR/SPECI
11:00 pm
V
55 °F 20 mi - Var Var 2 kt METAR CYEG 150500Z VRB02KT 20SM FEW160 13/10 A3001 RMK AC1 SLP168 DENSITY ALT 2600FT
10:00 pm
V
55 °F 20 mi - 120° 120° 3 kt METAR CYEG 150400Z 12003KT 20SM FEW160 FEW250 13/11 A3001 RMK AC1CI1 AC TR CI TR SLP170 DENSITY ALT 2700FT
9:00 pm
V
63 °F 20 mi - 160° 160° 5 kt METAR CYEG 150300Z 16005KT 20SM FEW160 FEW250 17/13 A3001 RMK AC1CI1 CI TR SLP166 DENSITY ALT 3200FT
8:00 pm
V
70 °F 20 mi 25.000 ft 190° 190° 4 kt METAR CYEG 150200Z 19004KT 20SM FEW160 BKN250 21/15 A3001 RMK AC2CI4 SLP166 DENSITY ALT 3500FT
7:00 pm
V
70 °F 20 mi 25.000 ft 190° 190° 3 kt METAR CYEG 150100Z 19003KT 20SM FEW060 FEW160 BKN250 21/14 A3001 RMK CU1AC1CI7 CU TR AC TR SLP169 DENSITY ALT 3600FT
6:00 pm
V
75 °F 20 mi 23.000 ft 160° 160° 3 kt METAR CYEG 150000Z 16003KT 20SM FEW060 FEW160 BKN230 24/13 A3002 RMK CU1AC1CI6 CU TR AC TR SLP167 DENSITY ALT 3900FT
5:00 pm
V
75 °F 20 mi 22.000 ft Var Var 3 kt METAR CYEG 142300Z VRB03KT 20SM FEW060 FEW100 BKN220 24/11 A3002 RMK CU1AC1CI6 AC TR SLP168 DENSITY ALT 3900FT
4:00 pm
V
73 °F 20 mi 25.000 ft 220° 220° 6 kt METAR CYEG 142200Z 22006KT 20SM FEW060 BKN250 23/12 A3002 RMK CU1CI5 SLP168 DENSITY ALT 3800FT
3:00 pm
V
75 °F 20 mi 25.000 ft 300° 300° 7 kt METAR CYEG 142100Z 30007KT 220V320 20SM FEW056 BKN250 24/11 A3002 RMK CU1CI5 CU TR SLP168 DENSITY ALT 3800FT
2:00 pm
V
73 °F 20 mi - 280° 280° 7 kt METAR CYEG 142000Z 28007KT 250V320 20SM FEW056 SCT250 23/09 A3002 RMK CU1CI3 CU TR SLP168 DENSITY ALT 3800FT
1:00 pm
V
73 °F 20 mi - 310° 310° 7 kt METAR CYEG 141900Z 31007KT 260V350 20SM FEW049 FEW250 23/11 A3002 RMK CF1CI1 CF TR SLP165 DENSITY ALT 3800FT
12:00 pm
V
72 °F 20 mi - 290° 290° 7 - 15 kt METAR CYEG 141800Z 29007G15KT 280V340 20SM FEW250 22/11 A3002 RMK CI1 SLP163 DENSITY ALT 3700FT
11:00 am
V
70 °F 20 mi - 330° 330° 9 - 15 kt METAR CYEG 141700Z 33009G15KT 290V010 20SM FEW250 21/11 A3002 RMK CI1 SLP164 DENSITY ALT 3600FT
10:00 am
V
66 °F 20 mi - 300° 300° 7 kt METAR CYEG 141600Z 30007KT 20SM FEW250 19/13 A3002 RMK CI2 SLP170 DENSITY ALT 3300FT
9:00 am
V
61 °F 20 mi - 290° 290° 8 kt METAR CYEG 141500Z 29008KT 20SM FEW250 16/12 A3003 RMK CI2 SLP171 DENSITY ALT 3000FT
8:00 am
V
57 °F 20 mi - 270° 270° 5 kt METAR CYEG 141400Z 27005KT 20SM FEW100 SCT250 14/12 A3001 RMK AC1CI3 AC TR SLP165 DENSITY ALT 2700FT
7:00 am
V
52 °F 20 mi - 270° 270° 6 kt METAR CYEG 141300Z 27006KT 20SM FEW100 FEW250 11/10 A3000 RMK AC1CI2 AC TR SLP162 DENSITY ALT 2400FT
6:00 am
V
54 °F 20 mi 25.000 ft 280° 280° 6 kt METAR CYEG 141200Z 28006KT 20SM FEW100 BKN250 12/10 A2998 RMK AC1CI5 AC TR SLP154 DENSITY ALT 2500FT
5:00 am
V
52 °F 20 mi 25.000 ft 260° 260° 7 kt METAR CYEG 141100Z 26007KT 20SM FEW100 BKN250 11/10 A2998 RMK ACC1CI6 ACC TR SLP151 DENSITY ALT 2500FT
4:00 am
V
54 °F 20 mi 25.000 ft 260° 260° 7 kt METAR CYEG 141000Z 26007KT 20SM FEW160 BKN250 12/10 A2997 RMK AC1CI6 AC TR SLP148 DENSITY ALT 2500FT
3:00 am
V
55 °F 20 mi - 230° 230° 4 kt METAR CYEG 140900Z 23004KT 20SM SCT160 SCT250 13/11 A2994 RMK AC3CI1 CI TR SLP138 DENSITY ALT 2700FT
Dati più vecchi

Noi e le terze parti seguiamo il tuo comportamento in internet sul nostro sito web con i cookie. Se continui, riteniamo che tu sia d'accordo con la nostra politica sui cookie. Per saperne di più